Time;durP1;ratioP1;P1;durP2;ratioP2;P2;SDS_P1;SDS_P2;PMS_P1;PMS_P2;Temp;Humidity;BMP_temperature;BMP_pressure;BME280_temperature;BME280_humidity;BME280_pressure;Samples;Min_cycle;Max_cycle;Signal;HPM_P1;HPM_P2
2021/12/15 00:01:30;;;;;;;36.05;16.13;;;;;;;;;;4790820;29;20051;-79
2021/12/15 00:03:56;;;;;;;31.83;15.48;;;;;;;;;;4776079;29;20126;-80
2021/12/15 00:06:22;;;;;;;34.92;15.35;;;;;;;;;;4775993;29;20043;-82
2021/12/15 00:08:50;;;;;;;29.33;15.00;;;;;;;;;;4775435;29;20132;-80
2021/12/15 00:11:17;;;;;;;30.00;14.65;;;;;;;;;;4783197;29;20072;-79
2021/12/15 00:13:44;;;;;;;33.90;16.02;;;;;;;;;;4790331;29;20361;-79
2021/12/15 00:16:11;;;;;;;30.08;14.55;;;;;;;;;;4778111;29;20050;-80
2021/12/15 00:18:41;;;;;;;36.30;15.23;;;;;;;;;;4790733;29;20460;-79
2021/12/15 00:21:08;;;;;;;31.15;14.13;;;;;;;;;;4775417;29;20483;-79
2021/12/15 00:23:34;;;;;;;29.08;14.70;;;;;;;;;;4782291;30;20043;-79
2021/12/15 00:26:00;;;;;;;30.65;14.73;;;;;;;;;;4775804;29;20058;-79
2021/12/15 00:28:26;;;;;;;39.67;15.50;;;;;;;;;;4776010;29;20060;-79
2021/12/15 00:30:52;;;;;;;33.13;14.45;;;;;;;;;;4790238;29;20050;-78
2021/12/15 00:33:18;;;;;;;31.13;15.93;;;;;;;;;;4790657;29;20395;-79
2021/12/15 00:35:44;;;;;;;27.00;14.32;;;;;;;;;;4790476;29;20047;-79
2021/12/15 00:38:11;;;;;;;30.30;15.60;;;;;;;;;;4775859;29;21761;-80
2021/12/15 00:40:37;;;;;;;34.97;15.85;;;;;;;;;;4787690;29;20047;-79
2021/12/15 00:43:04;;;;;;;31.90;15.15;;;;;;;;;;4789811;29;20104;-80
2021/12/15 00:45:30;;;;;;;35.53;15.68;;;;;;;;;;4774420;29;20047;-80
2021/12/15 00:47:57;;;;;;;26.33;15.35;;;;;;;;;;4785158;29;20078;-79
2021/12/15 00:50:24;;;;;;;29.92;15.23;;;;;;;;;;4789167;29;20340;-81
2021/12/15 00:52:51;;;;;;;29.85;15.98;;;;;;;;;;4777004;29;20043;-79
2021/12/15 00:55:19;;;;;;;30.83;15.73;;;;;;;;;;4811879;29;20118;-79
2021/12/15 00:57:46;;;;;;;37.50;16.70;;;;;;;;;;4778212;29;20437;-79
2021/12/15 01:00:14;;;;;;;36.33;16.70;;;;;;;;;;4796278;29;20047;-79
2021/12/15 01:02:41;;;;;;;33.63;15.23;;;;;;;;;;4795851;29;20121;-81
2021/12/15 01:05:08;;;;;;;29.77;15.25;;;;;;;;;;4810962;29;20472;-79
2021/12/15 01:07:35;;;;;;;34.97;16.02;;;;;;;;;;4795981;29;20131;-80
2021/12/15 01:10:01;;;;;;;29.15;14.50;;;;;;;;;;4793071;29;20540;-80
2021/12/15 01:14:27;;;;;;;28.15;14.57;;;;;;;;;;4795719;29;20049;-80
2021/12/15 01:20:44;;;;;;;27.95;13.80;;;;;;;;;;4793917;29;20062;-80
2021/12/15 01:23:13;;;;;;;28.20;14.90;;;;;;;;;;4783521;29;20099;-79
2021/12/15 01:25:42;;;;;;;31.65;14.95;;;;;;;;;;4781263;29;20463;-82
2021/12/15 01:28:09;;;;;;;27.70;13.73;;;;;;;;;;4785597;29;20096;-81
2021/12/15 01:30:38;;;;;;;33.10;14.32;;;;;;;;;;4794793;29;20460;-79
2021/12/15 01:33:04;;;;;;;30.52;13.90;;;;;;;;;;4781689;29;20077;-80
2021/12/15 01:35:34;;;;;;;30.02;13.93;;;;;;;;;;4780527;29;20086;-79
2021/12/15 01:38:03;;;;;;;29.95;13.65;;;;;;;;;;4781985;29;20471;-80
2021/12/15 01:40:36;;;;;;;32.95;13.98;;;;;;;;;;4782166;29;20102;-80
2021/12/15 01:43:25;;;;;;;29.73;13.82;;;;;;;;;;4780201;29;20047;-81
2021/12/15 01:48:40;;;;;;;32.08;14.80;;;;;;;;;;4815955;29;20108;-80
2021/12/15 01:51:08;;;;;;;30.10;14.70;;;;;;;;;;4795408;29;20133;-80
2021/12/15 01:53:34;;;;;;;28.75;14.27;;;;;;;;;;4793192;29;20057;-80
2021/12/15 01:56:01;;;;;;;31.98;14.75;;;;;;;;;;4780201;29;20491;-79
2021/12/15 01:58:27;;;;;;;35.00;14.88;;;;;;;;;;4780846;29;20035;-79
2021/12/15 02:00:57;;;;;;;34.28;15.38;;;;;;;;;;4796268;29;20129;-80
2021/12/15 02:03:24;;;;;;;28.60;14.73;;;;;;;;;;4792264;29;20046;-80
2021/12/15 02:05:54;;;;;;;33.58;16.20;;;;;;;;;;4774922;29;20354;-79
2021/12/15 02:08:20;;;;;;;35.53;15.55;;;;;;;;;;4791019;29;20058;-78
2021/12/15 02:10:47;;;;;;;37.38;17.10;;;;;;;;;;4778592;29;20141;-80
2021/12/15 02:13:15;;;;;;;33.33;16.65;;;;;;;;;;4791773;29;20050;-81
2021/12/15 02:15:43;;;;;;;36.58;17.33;;;;;;;;;;4790349;29;20107;-79
2021/12/15 02:18:11;;;;;;;38.85;17.67;;;;;;;;;;4776804;29;20053;-80
2021/12/15 02:20:39;;;;;;;31.40;16.15;;;;;;;;;;4786502;29;20062;-79
2021/12/15 02:23:08;;;;;;;35.65;17.67;;;;;;;;;;4790721;29;20452;-80
2021/12/15 02:25:34;;;;;;;38.85;18.17;;;;;;;;;;4777876;29;20069;-80
2021/12/15 02:28:02;;;;;;;38.95;19.02;;;;;;;;;;4791901;29;20554;-80
2021/12/15 02:30:50;;;;;;;34.75;18.50;;;;;;;;;;4792973;29;20130;-79
2021/12/15 02:38:36;;;;;;;37.80;18.92;;;;;;;;;;4791141;29;20107;-79
2021/12/15 02:41:19;;;;;;;44.40;19.52;;;;;;;;;;4789102;29;20070;-79
2021/12/15 02:43:53;;;;;;;34.85;19.15;;;;;;;;;;4792084;29;20057;-79
2021/12/15 02:46:21;;;;;;;47.55;19.63;;;;;;;;;;4777401;29;20128;-79
2021/12/15 02:48:49;;;;;;;40.80;19.80;;;;;;;;;;4771795;30;20055;-79
2021/12/15 02:51:16;;;;;;;39.00;19.90;;;;;;;;;;4786943;29;20051;-80
2021/12/15 02:53:42;;;;;;;38.25;19.30;;;;;;;;;;4771221;30;20073;-80
2021/12/15 02:56:12;;;;;;;38.05;18.27;;;;;;;;;;4788375;29;20066;-80
2021/12/15 02:58:47;;;;;;;38.65;19.98;;;;;;;;;;4772020;30;20076;-79
2021/12/15 03:01:20;;;;;;;40.00;18.40;;;;;;;;;;4773604;30;20078;-80
2021/12/15 03:04:13;;;;;;;33.97;18.20;;;;;;;;;;4773438;30;20497;-80
2021/12/15 03:06:50;;;;;;;37.67;18.42;;;;;;;;;;4771982;30;20063;-79
2021/12/15 03:17:24;;;;;;;41.10;17.60;;;;;;;;;;4789574;29;20075;-80
2021/12/15 03:19:52;;;;;;;34.55;17.25;;;;;;;;;;4791125;29;20498;-80
2021/12/15 03:22:18;;;;;;;33.78;16.75;;;;;;;;;;4789579;29;20064;-79
2021/12/15 03:24:44;;;;;;;33.53;15.95;;;;;;;;;;4778397;29;20146;-79
2021/12/15 03:27:17;;;;;;;34.85;17.08;;;;;;;;;;4774747;29;20117;-80
2021/12/15 03:35:22;;;;;;;44.53;20.23;;;;;;;;;;4790630;29;20050;-79
2021/12/15 03:37:52;;;;;;;40.67;19.80;;;;;;;;;;4779905;29;20062;-79
2021/12/15 03:40:20;;;;;;;41.03;20.17;;;;;;;;;;4791624;29;20134;-80
2021/12/15 03:42:58;;;;;;;41.50;19.88;;;;;;;;;;4781432;29;20486;-80
2021/12/15 03:45:30;;;;;;;41.25;20.05;;;;;;;;;;4790208;29;20053;-82
2021/12/15 03:47:58;;;;;;;46.95;22.17;;;;;;;;;;4775369;29;20376;-80
2021/12/15 03:50:25;;;;;;;38.40;21.17;;;;;;;;;;4777227;29;20042;-79
2021/12/15 03:52:51;;;;;;;46.42;22.38;;;;;;;;;;4783500;29;20043;-79
2021/12/15 03:55:19;;;;;;;44.88;21.70;;;;;;;;;;4790795;29;20180;-79
2021/12/15 03:57:46;;;;;;;42.45;20.48;;;;;;;;;;4788995;29;20050;-79
2021/12/15 04:00:12;;;;;;;38.78;20.33;;;;;;;;;;4778746;30;20044;-79
2021/12/15 04:02:39;;;;;;;40.47;21.42;;;;;;;;;;4790666;29;20093;-80
2021/12/15 04:05:06;;;;;;;44.63;20.98;;;;;;;;;;4777522;29;20049;-80
2021/12/15 04:07:32;;;;;;;44.38;21.38;;;;;;;;;;4779564;29;20133;-80
2021/12/15 04:10:01;;;;;;;37.25;21.25;;;;;;;;;;4778380;29;20489;-80
2021/12/15 04:12:27;;;;;;;43.63;20.58;;;;;;;;;;4774709;29;20435;-80
2021/12/15 04:14:56;;;;;;;36.55;19.67;;;;;;;;;;4789478;29;20047;-78
2021/12/15 04:17:26;;;;;;;36.25;19.10;;;;;;;;;;4771573;30;20431;-79
2021/12/15 04:19:58;;;;;;;40.10;18.35;;;;;;;;;;4790385;29;20126;-80
2021/12/15 04:22:25;;;;;;;38.15;18.92;;;;;;;;;;4790735;29;20476;-80
2021/12/15 04:24:52;;;;;;;36.92;17.80;;;;;;;;;;4791635;29;20042;-80
2021/12/15 04:27:20;;;;;;;37.88;18.67;;;;;;;;;;4799657;29;20525;-80
2021/12/15 04:29:50;;;;;;;39.15;18.42;;;;;;;;;;4770953;29;20466;-79
2021/12/15 04:32:24;;;;;;;33.70;18.65;;;;;;;;;;4775735;29;20069;-80
2021/12/15 04:34:53;;;;;;;38.30;18.50;;;;;;;;;;4776154;29;20046;-79
2021/12/15 04:37:19;;;;;;;36.60;18.67;;;;;;;;;;4787720;30;20051;-79
2021/12/15 04:39:45;;;;;;;37.40;18.35;;;;;;;;;;4788088;29;20061;-80
2021/12/15 04:42:12;;;;;;;40.42;17.95;;;;;;;;;;4790483;29;20039;-80
2021/12/15 04:44:38;;;;;;;35.38;18.35;;;;;;;;;;4781937;29;20043;-80
2021/12/15 04:47:10;;;;;;;34.00;18.02;;;;;;;;;;4789677;29;20054;-79
2021/12/15 04:49:48;;;;;;;32.80;17.33;;;;;;;;;;4773100;29;20061;-80
2021/12/15 04:52:15;;;;;;;37.75;18.48;;;;;;;;;;4790247;29;20051;-78
2021/12/15 04:54:41;;;;;;;35.55;17.85;;;;;;;;;;4775934;29;20085;-78
2021/12/15 04:57:08;;;;;;;40.88;18.65;;;;;;;;;;4790114;29;20085;-79
2021/12/15 04:59:34;;;;;;;41.30;19.42;;;;;;;;;;4776542;29;20082;-80
2021/12/15 05:02:00;;;;;;;35.22;19.27;;;;;;;;;;4773722;30;20047;-80
2021/12/15 05:04:27;;;;;;;36.55;18.63;;;;;;;;;;4788481;29;20157;-80
2021/12/15 05:06:53;;;;;;;40.58;19.73;;;;;;;;;;4790181;29;20047;-79
2021/12/15 05:09:20;;;;;;;35.63;19.17;;;;;;;;;;4775409;29;20155;-79
2021/12/15 05:11:49;;;;;;;33.63;17.38;;;;;;;;;;4774439;29;20117;-80
2021/12/15 05:14:15;;;;;;;33.70;17.58;;;;;;;;;;4790629;29;20365;-80
2021/12/15 05:16:41;;;;;;;35.08;17.13;;;;;;;;;;4778987;29;20062;-79
2021/12/15 05:19:08;;;;;;;36.45;16.95;;;;;;;;;;4803420;29;20046;-80
2021/12/15 05:21:34;;;;;;;38.33;17.77;;;;;;;;;;4774968;29;20082;-79
2021/12/15 05:24:11;;;;;;;35.25;17.30;;;;;;;;;;4776012;29;20058;-79
2021/12/15 05:26:37;;;;;;;33.55;17.00;;;;;;;;;;4788185;29;20047;-80
2021/12/15 05:29:03;;;;;;;33.00;16.98;;;;;;;;;;4761833;30;20437;-79
2021/12/15 05:31:29;;;;;;;35.65;16.65;;;;;;;;;;4787718;29;20158;-78
2021/12/15 05:33:56;;;;;;;34.17;16.80;;;;;;;;;;4772729;30;20086;-80
2021/12/15 05:36:22;;;;;;;32.00;17.13;;;;;;;;;;4787293;29;20055;-81
2021/12/15 05:38:48;;;;;;;34.78;17.70;;;;;;;;;;4789686;29;20055;-80
2021/12/15 05:41:15;;;;;;;35.28;18.33;;;;;;;;;;4775220;29;20043;-79
2021/12/15 05:43:41;;;;;;;37.65;18.15;;;;;;;;;;4790281;29;20043;-79
2021/12/15 05:46:07;;;;;;;33.83;16.92;;;;;;;;;;4776618;29;20057;-79
2021/12/15 05:48:33;;;;;;;34.17;17.02;;;;;;;;;;4780715;29;20488;-79
2021/12/15 05:50:59;;;;;;;33.30;17.30;;;;;;;;;;4794220;29;20129;-80
2021/12/15 05:53:26;;;;;;;30.98;15.50;;;;;;;;;;4792667;29;20378;-79
2021/12/15 05:55:52;;;;;;;33.72;16.15;;;;;;;;;;4779571;29;20100;-79
2021/12/15 05:58:19;;;;;;;35.45;16.40;;;;;;;;;;4773576;29;20086;-79
2021/12/15 06:00:45;;;;;;;33.28;16.38;;;;;;;;;;4791826;29;20125;-80
2021/12/15 06:03:11;;;;;;;32.65;15.40;;;;;;;;;;4793045;29;20058;-79
2021/12/15 06:05:38;;;;;;;30.33;15.75;;;;;;;;;;4778977;29;20108;-79
2021/12/15 06:08:05;;;;;;;31.95;16.38;;;;;;;;;;4775131;29;20371;-79
2021/12/15 06:10:33;;;;;;;30.85;16.33;;;;;;;;;;4793115;29;20059;-79
2021/12/15 06:13:02;;;;;;;31.65;16.48;;;;;;;;;;4792405;29;20553;-80
2021/12/15 06:15:29;;;;;;;29.88;16.08;;;;;;;;;;4783568;29;20096;-80
2021/12/15 06:17:59;;;;;;;32.30;15.98;;;;;;;;;;4776499;29;20054;-80
2021/12/15 06:20:29;;;;;;;33.10;16.70;;;;;;;;;;4778329;29;20047;-79
2021/12/15 06:22:58;;;;;;;35.70;17.65;;;;;;;;;;4778661;29;20054;-79
2021/12/15 06:25:24;;;;;;;33.83;16.65;;;;;;;;;;4772192;29;20047;-80
2021/12/15 06:27:50;;;;;;;38.85;18.45;;;;;;;;;;4778563;29;20068;-80
2021/12/15 06:30:19;;;;;;;33.92;16.95;;;;;;;;;;4792750;29;20127;-80
2021/12/15 06:32:45;;;;;;;32.65;16.77;;;;;;;;;;4776968;29;20047;-79
2021/12/15 06:35:11;;;;;;;33.65;16.80;;;;;;;;;;4775180;30;20047;-80
2021/12/15 06:37:38;;;;;;;29.23;15.90;;;;;;;;;;4784233;29;20479;-80
2021/12/15 06:40:07;;;;;;;28.50;15.35;;;;;;;;;;4786288;30;20055;-79
2021/12/15 06:42:35;;;;;;;35.97;16.65;;;;;;;;;;4792619;29;20051;-80
2021/12/15 06:45:01;;;;;;;29.05;15.40;;;;;;;;;;4792692;29;20047;-80
2021/12/15 07:00:34;;;;;;;30.55;14.18;;;;;;;;;;4789898;29;20468;-80
2021/12/15 07:03:01;;;;;;;28.73;14.05;;;;;;;;;;4792247;29;20133;-79
2021/12/15 07:05:27;;;;;;;28.25;13.93;;;;;;;;;;4774969;30;20104;-79
2021/12/15 07:07:54;;;;;;;23.70;13.18;;;;;;;;;;4784934;29;20471;-80
2021/12/15 07:10:23;;;;;;;31.60;14.50;;;;;;;;;;4789898;29;20059;-79
2021/12/15 07:12:50;;;;;;;29.58;15.35;;;;;;;;;;4791830;29;20051;-79
2021/12/15 07:15:17;;;;;;;26.75;14.10;;;;;;;;;;4784963;29;20055;-79
2021/12/15 07:17:46;;;;;;;27.45;14.45;;;;;;;;;;4788057;29;20379;-79
2021/12/15 07:22:58;;;;;;;27.08;13.68;;;;;;;;;;4789235;29;20337;-81
2021/12/15 07:25:24;;;;;;;31.30;13.30;;;;;;;;;;4808219;29;20058;-78
2021/12/15 07:27:50;;;;;;;26.95;13.45;;;;;;;;;;4778314;29;20058;-79
2021/12/15 07:30:17;;;;;;;24.60;12.63;;;;;;;;;;4791210;29;20042;-80
2021/12/15 07:32:43;;;;;;;20.73;12.98;;;;;;;;;;4773544;29;20059;-79
2021/12/15 07:35:11;;;;;;;22.85;12.05;;;;;;;;;;4773161;29;20169;-77
2021/12/15 07:37:37;;;;;;;27.27;13.27;;;;;;;;;;4778636;29;20065;-79
2021/12/15 07:40:06;;;;;;;24.30;12.23;;;;;;;;;;4776098;29;20054;-79
2021/12/15 07:42:42;;;;;;;22.35;12.20;;;;;;;;;;4781965;29;20469;-78
2021/12/15 07:45:09;;;;;;;20.27;11.88;;;;;;;;;;4789422;29;20583;-81
2021/12/15 07:47:35;;;;;;;19.58;11.10;;;;;;;;;;4775695;29;20059;-80
2021/12/15 07:50:02;;;;;;;23.98;10.95;;;;;;;;;;4776853;29;20388;-79
2021/12/15 07:52:29;;;;;;;21.13;11.60;;;;;;;;;;4789391;29;21660;-79
2021/12/15 07:54:56;;;;;;;18.98;10.68;;;;;;;;;;4796763;29;20114;-77
2021/12/15 07:57:22;;;;;;;25.40;10.50;;;;;;;;;;4770908;29;20173;-78
2021/12/15 07:59:49;;;;;;;20.92;9.15;;;;;;;;;;4784476;29;20108;-79
2021/12/15 08:02:16;;;;;;;24.13;10.40;;;;;;;;;;4797580;29;20142;-80
2021/12/15 08:04:42;;;;;;;22.17;9.63;;;;;;;;;;4791432;29;20051;-78
2021/12/15 08:07:08;;;;;;;21.40;8.48;;;;;;;;;;4764209;29;20636;-78
2021/12/15 08:09:34;;;;;;;15.43;7.90;;;;;;;;;;4794929;29;20066;-79
2021/12/15 08:12:00;;;;;;;17.45;8.40;;;;;;;;;;4786764;29;20112;-80
2021/12/15 08:14:27;;;;;;;15.40;8.13;;;;;;;;;;4790831;29;20062;-77
2021/12/15 08:16:53;;;;;;;14.73;7.68;;;;;;;;;;4800126;29;20046;-78
2021/12/15 08:19:19;;;;;;;16.30;8.35;;;;;;;;;;4792049;29;20047;-78
2021/12/15 08:21:46;;;;;;;17.10;8.15;;;;;;;;;;4790021;29;20138;-80
2021/12/15 08:24:12;;;;;;;19.20;8.23;;;;;;;;;;4775593;29;20043;-78
2021/12/15 08:26:38;;;;;;;14.88;7.93;;;;;;;;;;4776172;29;20054;-78
2021/12/15 08:29:05;;;;;;;18.70;8.23;;;;;;;;;;4773717;30;20501;-79
2021/12/15 08:31:31;;;;;;;12.77;7.57;;;;;;;;;;4780291;29;20071;-80
2021/12/15 08:33:57;;;;;;;15.50;7.65;;;;;;;;;;4790724;29;20058;-80
2021/12/15 08:36:23;;;;;;;13.02;7.32;;;;;;;;;;4790661;29;20379;-78
2021/12/15 08:38:53;;;;;;;15.15;7.70;;;;;;;;;;4773418;30;20055;-78
2021/12/15 08:41:23;;;;;;;15.65;7.38;;;;;;;;;;4774387;29;20142;-79
2021/12/15 08:43:59;;;;;;;15.43;7.25;;;;;;;;;;4790254;29;20501;-81
2021/12/15 08:46:30;;;;;;;18.73;8.33;;;;;;;;;;4771597;29;20407;-80
2021/12/15 08:48:57;;;;;;;19.50;7.10;;;;;;;;;;4787572;29;20464;-80
2021/12/15 08:51:26;;;;;;;15.55;6.68;;;;;;;;;;4773124;29;20468;-79
2021/12/15 08:53:56;;;;;;;15.73;7.20;;;;;;;;;;4783117;29;20476;-80
2021/12/15 08:56:22;;;;;;;13.60;6.28;;;;;;;;;;4772845;30;20066;-79
2021/12/15 08:58:48;;;;;;;12.98;6.18;;;;;;;;;;4777234;30;20116;-76
2021/12/15 09:01:15;;;;;;;13.65;6.57;;;;;;;;;;4801537;29;20108;-81
2021/12/15 09:03:43;;;;;;;13.10;6.82;;;;;;;;;;4774836;29;20137;-81
2021/12/15 09:06:09;;;;;;;15.45;6.72;;;;;;;;;;4789691;29;20051;-79
2021/12/15 09:08:36;;;;;;;14.27;6.65;;;;;;;;;;4774526;29;20143;-79
2021/12/15 09:11:06;;;;;;;13.55;6.55;;;;;;;;;;4806490;29;20051;-77
2021/12/15 09:13:33;;;;;;;13.00;6.10;;;;;;;;;;4775999;29;20070;-78
2021/12/15 09:16:00;;;;;;;14.30;6.53;;;;;;;;;;4771637;29;20099;-77
2021/12/15 09:18:26;;;;;;;13.90;6.90;;;;;;;;;;4790673;29;20051;-79
2021/12/15 09:20:53;;;;;;;19.95;8.07;;;;;;;;;;4779489;29;20058;-79
2021/12/15 09:23:19;;;;;;;13.65;6.88;;;;;;;;;;4779702;29;20047;-78
2021/12/15 09:25:46;;;;;;;13.25;6.50;;;;;;;;;;4779311;29;20598;-81
2021/12/15 09:28:12;;;;;;;13.70;6.40;;;;;;;;;;4794251;29;20440;-78
2021/12/15 09:30:44;;;;;;;13.63;6.43;;;;;;;;;;4794857;29;20046;-82
2021/12/15 09:33:14;;;;;;;12.63;6.55;;;;;;;;;;4779350;29;20114;-79
2021/12/15 09:35:41;;;;;;;12.77;6.00;;;;;;;;;;4788592;29;20053;-78
2021/12/15 09:38:07;;;;;;;13.85;6.68;;;;;;;;;;4794081;29;20053;-81
2021/12/15 09:40:33;;;;;;;12.27;5.97;;;;;;;;;;4794270;29;20113;-80
2021/12/15 09:43:01;;;;;;;16.98;7.03;;;;;;;;;;4793520;29;20046;-78
2021/12/15 10:04:22;;;;;;;9.35;5.10;;;;;;;;;;4793488;29;20051;-80
2021/12/15 10:07:14;;;;;;;11.80;4.82;;;;;;;;;;4778784;29;20120;-80
2021/12/15 10:18:02;;;;;;;12.48;4.65;;;;;;;;;;4793011;29;20046;-80
2021/12/15 10:20:29;;;;;;;9.05;4.22;;;;;;;;;;4778510;29;20050;-79
2021/12/15 10:23:01;;;;;;;9.20;4.28;;;;;;;;;;4793480;29;20043;-80
2021/12/15 10:25:33;;;;;;;8.02;3.97;;;;;;;;;;4793408;29;20050;-80
2021/12/15 10:28:05;;;;;;;10.55;4.15;;;;;;;;;;4792268;29;20057;-81
2021/12/15 10:30:33;;;;;;;7.82;3.92;;;;;;;;;;4792120;29;20062;-79
2021/12/15 10:33:01;;;;;;;7.97;3.30;;;;;;;;;;4778398;29;20130;-80
2021/12/15 10:35:34;;;;;;;9.07;3.72;;;;;;;;;;4793437;29;20050;-78
2021/12/15 10:38:18;;;;;;;9.27;4.15;;;;;;;;;;4778103;29;20054;-80
2021/12/15 10:40:46;;;;;;;7.68;3.63;;;;;;;;;;4778146;29;20062;-80
2021/12/15 10:43:12;;;;;;;7.90;3.88;;;;;;;;;;4776704;29;20430;-79
2021/12/15 10:45:46;;;;;;;8.60;3.58;;;;;;;;;;4790785;29;20038;-79
2021/12/15 10:48:23;;;;;;;9.52;3.70;;;;;;;;;;4792708;29;20047;-79
2021/12/15 10:50:50;;;;;;;9.15;3.40;;;;;;;;;;4793061;29;20426;-79
2021/12/15 10:53:28;;;;;;;7.43;3.50;;;;;;;;;;4793094;29;20053;-80
2021/12/15 10:55:54;;;;;;;7.63;3.33;;;;;;;;;;4778393;29;20047;-81
2021/12/15 10:58:41;;;;;;;7.85;3.92;;;;;;;;;;4792661;29;20050;-80
2021/12/15 11:01:27;;;;;;;7.50;3.63;;;;;;;;;;4778851;29;20047;-80
2021/12/15 11:03:53;;;;;;;8.68;3.67;;;;;;;;;;4777998;29;20057;-82
2021/12/15 11:06:21;;;;;;;9.23;3.40;;;;;;;;;;4792562;29;20050;-80
2021/12/15 11:08:47;;;;;;;8.80;3.25;;;;;;;;;;4791159;29;20138;-80
2021/12/15 11:11:27;;;;;;;7.80;3.33;;;;;;;;;;4777052;29;20062;-79
2021/12/15 11:13:53;;;;;;;8.57;3.60;;;;;;;;;;4788837;29;20049;-78
2021/12/15 11:16:28;;;;;;;7.18;3.60;;;;;;;;;;4777290;29;20429;-78
2021/12/15 11:18:54;;;;;;;10.13;3.85;;;;;;;;;;4767528;30;20116;-76
2021/12/15 11:21:20;;;;;;;8.52;3.60;;;;;;;;;;4773355;29;20441;-79
2021/12/15 11:23:46;;;;;;;8.38;3.83;;;;;;;;;;4792416;29;20050;-78
2021/12/15 11:26:13;;;;;;;11.32;3.90;;;;;;;;;;4792776;29;20069;-78
2021/12/15 11:28:39;;;;;;;9.05;3.58;;;;;;;;;;4774500;30;20043;-78
2021/12/15 11:31:07;;;;;;;11.77;3.95;;;;;;;;;;4791980;29;20119;-77
2021/12/15 11:33:37;;;;;;;11.70;4.03;;;;;;;;;;4792563;29;20123;-78
2021/12/15 11:36:08;;;;;;;8.90;3.92;;;;;;;;;;4792070;29;20062;-79
2021/12/15 11:38:39;;;;;;;10.13;3.67;;;;;;;;;;4791674;29;20054;-79
2021/12/15 11:41:08;;;;;;;12.00;3.90;;;;;;;;;;4791543;29;20055;-80
2021/12/15 11:43:37;;;;;;;12.63;4.30;;;;;;;;;;4791009;29;20139;-79
2021/12/15 11:46:18;;;;;;;8.13;3.47;;;;;;;;;;4791354;29;20101;-79
2021/12/15 11:48:47;;;;;;;10.35;3.70;;;;;;;;;;4792069;29;20051;-78
2021/12/15 11:51:14;;;;;;;5.00;2.38;;;;;;;;;;4773244;30;20480;-77
2021/12/15 11:53:51;;;;;;;6.15;2.78;;;;;;;;;;4785780;29;20042;-80
2021/12/15 11:56:27;;;;;;;8.40;2.95;;;;;;;;;;4768837;29;20042;-76
2021/12/15 11:59:14;;;;;;;5.93;2.55;;;;;;;;;;4789944;30;20051;-78
2021/12/15 12:02:01;;;;;;;6.47;2.70;;;;;;;;;;4803672;29;20046;-77
2021/12/15 12:04:30;;;;;;;5.63;2.60;;;;;;;;;;4775801;29;20043;-79
2021/12/15 12:07:09;;;;;;;6.20;3.20;;;;;;;;;;4785954;29;20081;-78
2021/12/15 12:09:38;;;;;;;5.43;2.70;;;;;;;;;;4776442;29;20063;-79
2021/12/15 12:12:06;;;;;;;5.95;3.00;;;;;;;;;;4791198;29;20069;-77
2021/12/15 12:14:43;;;;;;;7.72;2.58;;;;;;;;;;4791470;29;20051;-78
2021/12/15 12:17:13;;;;;;;8.23;2.80;;;;;;;;;;4776379;29;20050;-79
2021/12/15 12:19:59;;;;;;;6.53;2.72;;;;;;;;;;4776591;29;20380;-78
2021/12/15 12:22:27;;;;;;;5.97;2.50;;;;;;;;;;4791661;29;20054;-78
2021/12/15 12:24:55;;;;;;;5.25;2.30;;;;;;;;;;4790887;29;20042;-77
2021/12/15 12:27:23;;;;;;;6.03;2.58;;;;;;;;;;4775815;29;20073;-79
2021/12/15 12:29:50;;;;;;;5.97;2.42;;;;;;;;;;4807529;29;20062;-79
2021/12/15 12:32:16;;;;;;;6.00;2.30;;;;;;;;;;4791554;29;20055;-79
2021/12/15 12:34:43;;;;;;;3.58;2.47;;;;;;;;;;4775717;29;20388;-78
2021/12/15 12:37:14;;;;;;;4.45;2.30;;;;;;;;;;4786496;29;20058;-79
2021/12/15 12:39:41;;;;;;;4.72;2.35;;;;;;;;;;4787993;30;20047;-77
2021/12/15 12:42:07;;;;;;;4.47;2.47;;;;;;;;;;4789757;29;20129;-78
2021/12/15 12:44:36;;;;;;;4.25;2.40;;;;;;;;;;4777626;29;20059;-77
2021/12/15 12:47:09;;;;;;;3.60;2.45;;;;;;;;;;4791620;29;20055;-79
2021/12/15 13:00:42;;;;;;;5.60;2.38;;;;;;;;;;4784461;30;20043;-78
2021/12/15 13:03:12;;;;;;;4.60;2.53;;;;;;;;;;4773283;29;20189;-78
2021/12/15 13:05:41;;;;;;;8.02;2.33;;;;;;;;;;4775316;29;20054;-78
2021/12/15 13:08:12;;;;;;;3.78;2.42;;;;;;;;;;4790945;29;20061;-78
2021/12/15 13:10:57;;;;;;;4.85;2.00;;;;;;;;;;4791728;29;20080;-78
2021/12/15 13:13:25;;;;;;;4.65;2.20;;;;;;;;;;4776637;29;20078;-78
2021/12/15 13:15:54;;;;;;;4.20;2.33;;;;;;;;;;4776705;29;20515;-78
2021/12/15 13:18:20;;;;;;;10.00;2.38;;;;;;;;;;4792195;29;20055;-78
2021/12/15 13:20:53;;;;;;;6.00;2.38;;;;;;;;;;4790974;29;20054;-77
2021/12/15 13:23:43;;;;;;;3.85;2.08;;;;;;;;;;4791708;29;20131;-78
2021/12/15 13:29:14;;;;;;;4.07;2.40;;;;;;;;;;4807541;29;20134;-79
2021/12/15 13:31:51;;;;;;;4.45;2.13;;;;;;;;;;4791910;29;20477;-77
2021/12/15 13:34:33;;;;;;;6.28;2.17;;;;;;;;;;4777303;29;20471;-79
2021/12/15 13:36:59;;;;;;;3.22;1.90;;;;;;;;;;4791651;29;20042;-79
2021/12/15 13:39:25;;;;;;;3.78;2.13;;;;;;;;;;4768841;29;20051;-78
2021/12/15 13:44:39;;;;;;;6.28;2.42;;;;;;;;;;4791332;29;20097;-79
2021/12/15 13:47:05;;;;;;;5.28;2.40;;;;;;;;;;4773435;29;20130;-77
2021/12/15 13:49:31;;;;;;;5.20;2.13;;;;;;;;;;4790351;29;20050;-78
2021/12/15 13:52:07;;;;;;;5.18;2.47;;;;;;;;;;4774002;29;20058;-78
2021/12/15 13:54:33;;;;;;;5.15;2.70;;;;;;;;;;4785869;29;20061;-77
2021/12/15 13:57:12;;;;;;;4.72;2.30;;;;;;;;;;4788306;29;20046;-78
2021/12/15 13:59:40;;;;;;;6.15;2.55;;;;;;;;;;4786104;29;20138;-79
2021/12/15 14:02:14;;;;;;;5.60;2.50;;;;;;;;;;4790034;29;20054;-78
2021/12/15 14:04:44;;;;;;;5.07;2.42;;;;;;;;;;4789067;29;20492;-78
2021/12/15 14:07:29;;;;;;;5.75;2.53;;;;;;;;;;4806796;29;20086;-77
2021/12/15 14:10:04;;;;;;;6.70;2.70;;;;;;;;;;4778472;29;20185;-77
2021/12/15 14:12:45;;;;;;;4.53;2.25;;;;;;;;;;4765693;30;20044;-79
2021/12/15 14:15:12;;;;;;;6.03;2.35;;;;;;;;;;4791415;29;20080;-78
2021/12/15 14:17:39;;;;;;;3.03;2.00;;;;;;;;;;4777096;30;20051;-79
2021/12/15 14:20:13;;;;;;;4.88;2.95;;;;;;;;;;4766585;29;20043;-80
2021/12/15 14:22:41;;;;;;;4.47;2.50;;;;;;;;;;4793259;29;20054;-81
2021/12/15 14:25:07;;;;;;;6.07;2.50;;;;;;;;;;4777448;29;20598;-76
2021/12/15 14:27:33;;;;;;;5.85;2.25;;;;;;;;;;4793080;29;20051;-77
2021/12/15 14:30:00;;;;;;;4.93;2.70;;;;;;;;;;4790467;29;20051;-80
2021/12/15 14:32:27;;;;;;;5.65;2.63;;;;;;;;;;4792413;29;20498;-77
2021/12/15 14:34:53;;;;;;;5.97;2.75;;;;;;;;;;4809426;29;20054;-77
2021/12/15 14:37:20;;;;;;;4.72;3.13;;;;;;;;;;4777694;29;20070;-77
2021/12/15 14:39:49;;;;;;;6.20;3.10;;;;;;;;;;4793139;29;20131;-77
2021/12/15 14:42:17;;;;;;;8.18;3.20;;;;;;;;;;4792837;29;20472;-77
2021/12/15 14:44:51;;;;;;;5.50;2.90;;;;;;;;;;4792962;29;20464;-79
2021/12/15 14:47:18;;;;;;;5.70;2.90;;;;;;;;;;4773066;30;20051;-77
2021/12/15 14:49:52;;;;;;;6.68;3.00;;;;;;;;;;4774889;30;20047;-77
2021/12/15 14:52:21;;;;;;;5.40;3.20;;;;;;;;;;4774960;30;20134;-76
2021/12/15 14:54:49;;;;;;;5.40;2.92;;;;;;;;;;4788281;29;20058;-77
2021/12/15 14:57:18;;;;;;;6.60;2.85;;;;;;;;;;4792379;29;20098;-77
2021/12/15 14:59:52;;;;;;;4.57;2.58;;;;;;;;;;4792652;29;20133;-76
2021/12/15 15:02:23;;;;;;;3.80;2.65;;;;;;;;;;4792475;29;20050;-79
2021/12/15 15:04:58;;;;;;;6.13;2.92;;;;;;;;;;4791705;29;20099;-77
2021/12/15 15:07:27;;;;;;;4.03;2.17;;;;;;;;;;4776995;29;20434;-78
2021/12/15 15:09:55;;;;;;;7.18;2.65;;;;;;;;;;4791425;29;20058;-79
2021/12/15 15:12:30;;;;;;;6.22;2.25;;;;;;;;;;4773768;29;20081;-79
2021/12/15 15:15:00;;;;;;;3.92;2.08;;;;;;;;;;4792716;29;20092;-79
2021/12/15 15:17:30;;;;;;;3.38;2.08;;;;;;;;;;4775159;29;20038;-79
2021/12/15 15:20:17;;;;;;;6.22;2.40;;;;;;;;;;4778333;29;20054;-79
2021/12/15 15:22:44;;;;;;;4.95;2.10;;;;;;;;;;4754505;30;20537;-78
2021/12/15 15:25:12;;;;;;;5.43;2.45;;;;;;;;;;4771538;30;20075;-78
2021/12/15 15:27:43;;;;;;;5.03;2.20;;;;;;;;;;4787672;29;20046;-84
2021/12/15 15:30:11;;;;;;;4.65;2.28;;;;;;;;;;4777345;29;20150;-77
2021/12/15 15:32:40;;;;;;;7.25;2.17;;;;;;;;;;4769035;30;20074;-77
2021/12/15 15:35:14;;;;;;;7.18;2.33;;;;;;;;;;4774296;30;20078;-78
2021/12/15 15:37:40;;;;;;;5.00;2.30;;;;;;;;;;4769846;29;20043;-77
2021/12/15 15:40:12;;;;;;;5.72;2.42;;;;;;;;;;4791807;29;20097;-77
2021/12/15 15:42:39;;;;;;;7.05;2.70;;;;;;;;;;4791284;29;20051;-79
2021/12/15 15:45:06;;;;;;;6.75;2.40;;;;;;;;;;4792104;29;20054;-79
2021/12/15 15:47:32;;;;;;;5.20;2.63;;;;;;;;;;4777172;29;20039;-77
2021/12/15 15:50:01;;;;;;;6.65;2.80;;;;;;;;;;4777594;29;20118;-76
2021/12/15 15:52:27;;;;;;;7.10;2.85;;;;;;;;;;4791047;29;20058;-78
2021/12/15 15:54:53;;;;;;;4.97;2.70;;;;;;;;;;4786244;29;20062;-80
2021/12/15 15:57:24;;;;;;;3.92;2.40;;;;;;;;;;4774430;29;20051;-79
2021/12/15 15:59:51;;;;;;;5.13;2.63;;;;;;;;;;4789958;29;20054;-79
2021/12/15 16:02:18;;;;;;;4.20;2.38;;;;;;;;;;4789568;29;20483;-77
2021/12/15 16:04:45;;;;;;;3.63;2.40;;;;;;;;;;4790917;29;20141;-76
2021/12/15 16:07:14;;;;;;;8.07;2.90;;;;;;;;;;4776273;29;20054;-77